createdAt,value
2023-02-16T00:00:30.514Z,8.60
2023-02-16T00:02:58.029Z,10.02
2023-02-16T00:05:28.234Z,7.88
2023-02-16T00:07:56.938Z,9.07
2023-02-16T00:10:25.495Z,8.70
2023-02-16T00:13:12.129Z,8.80
2023-02-16T00:15:39.852Z,7.70
2023-02-16T00:18:22.025Z,8.77
2023-02-16T00:20:49.727Z,7.70
2023-02-16T00:23:17.114Z,8.40
2023-02-16T00:25:44.245Z,7.95
2023-02-16T00:28:19.715Z,8.52
2023-02-16T00:30:47.386Z,8.68
2023-02-16T00:33:16.652Z,8.52
2023-02-16T00:35:44.765Z,8.27
2023-02-16T00:38:12.518Z,7.65
2023-02-16T00:40:40.583Z,8.52
2023-02-16T00:43:08.026Z,8.27
2023-02-16T00:45:38.168Z,8.25
2023-02-16T00:48:05.319Z,8.38
2023-02-16T00:50:34.626Z,9.38
2023-02-16T00:53:02.995Z,8.93
2023-02-16T00:55:34.071Z,9.13
2023-02-16T00:58:16.104Z,8.02
2023-02-16T01:00:47.710Z,8.75
2023-02-16T01:03:24.563Z,9.23
2023-02-16T01:06:12.221Z,7.65
2023-02-16T01:08:57.690Z,8.45
2023-02-16T01:11:26.839Z,7.85
2023-02-16T01:13:55.336Z,9.73
2023-02-16T01:16:25.192Z,8.88
2023-02-16T01:18:53.093Z,8.52
2023-02-16T01:21:22.085Z,9.23
2023-02-16T01:23:49.194Z,8.20
2023-02-16T01:26:18.681Z,8.35
2023-02-16T01:28:45.894Z,8.63
2023-02-16T01:31:14.856Z,8.10
2023-02-16T01:33:42.810Z,8.10
2023-02-16T01:36:20.297Z,8.80
2023-02-16T01:38:47.692Z,6.97
2023-02-16T01:41:27.465Z,8.48
2023-02-16T01:44:05.978Z,9.30
2023-02-16T01:46:44.663Z,7.15
2023-02-16T01:49:17.485Z,7.68
2023-02-16T01:52:02.718Z,8.55
2023-02-16T01:54:53.107Z,8.57
2023-02-16T01:57:38.125Z,7.70
2023-02-16T02:00:08.464Z,8.07
2023-02-16T02:02:39.582Z,8.57
2023-02-16T02:05:36.788Z,8.50
2023-02-16T02:08:11.527Z,7.90
2023-02-16T02:10:56.256Z,8.25
2023-02-16T02:13:31.706Z,9.02
2023-02-16T02:16:00.302Z,8.55
2023-02-16T02:18:27.352Z,7.63
2023-02-16T02:21:38.374Z,7.63
2023-02-16T02:24:20.348Z,7.72
2023-02-16T02:27:09.333Z,8.23
2023-02-16T02:30:01.300Z,7.45
2023-02-16T02:32:43.428Z,7.47
2023-02-16T02:35:34.589Z,7.50
2023-02-16T02:38:20.195Z,8.13
2023-02-16T02:41:02.423Z,7.95
2023-02-16T02:43:46.238Z,6.95
2023-02-16T02:46:32.166Z,6.53
2023-02-16T02:48:59.625Z,5.95
2023-02-16T02:51:29.408Z,6.70
2023-02-16T02:54:28.696Z,5.88
2023-02-16T02:57:22.506Z,5.63
2023-02-16T03:00:16.131Z,4.82
2023-02-16T03:02:46.086Z,5.15
2023-02-16T03:05:15.351Z,5.55
2023-02-16T03:07:47.691Z,4.85
2023-02-16T03:10:41.587Z,6.03
2023-02-16T03:13:14.053Z,6.13
2023-02-16T03:15:42.322Z,6.50
2023-02-16T03:18:31.257Z,6.13
2023-02-16T03:21:17.942Z,6.35
2023-02-16T03:24:05.495Z,6.00
2023-02-16T03:26:52.347Z,6.20
2023-02-16T03:29:24.768Z,6.35
2023-02-16T03:31:54.258Z,6.10
2023-02-16T03:34:22.568Z,6.45
2023-02-16T03:36:55.040Z,6.03
2023-02-16T03:39:22.055Z,7.75
2023-02-16T03:41:54.546Z,6.07
2023-02-16T03:44:22.086Z,6.38
2023-02-16T03:46:49.670Z,6.78
2023-02-16T03:49:20.699Z,6.50
2023-02-16T03:51:48.029Z,6.20
2023-02-16T03:54:15.126Z,6.53
2023-02-16T03:56:42.147Z,6.30
2023-02-16T03:59:09.180Z,6.95
2023-02-16T04:01:36.176Z,6.47
2023-02-16T04:04:03.294Z,7.20
2023-02-16T04:06:30.475Z,6.93
2023-02-16T04:08:57.560Z,6.65
2023-02-16T04:11:42.754Z,6.97
2023-02-16T04:14:09.709Z,6.78
2023-02-16T04:16:36.816Z,6.78
2023-02-16T04:19:03.781Z,7.03
2023-02-16T04:21:30.910Z,7.43
2023-02-16T04:23:57.805Z,7.68
2023-02-16T04:26:24.784Z,7.65
2023-02-16T04:28:51.790Z,8.52
2023-02-16T04:31:18.843Z,8.15
2023-02-16T04:33:45.811Z,8.00
2023-02-16T04:36:12.889Z,7.53
2023-02-16T04:38:39.931Z,9.45
2023-02-16T04:41:06.946Z,8.15
2023-02-16T04:43:34.528Z,8.20
2023-02-16T04:46:01.639Z,9.32
2023-02-16T04:48:28.848Z,8.50
2023-02-16T04:50:55.949Z,9.13
2023-02-16T04:53:22.926Z,8.80
2023-02-16T04:55:50.425Z,7.70
2023-02-16T04:58:17.642Z,12.52
2023-02-16T05:00:44.760Z,9.10
2023-02-16T05:03:11.863Z,9.52
2023-02-16T05:05:39.204Z,8.57
2023-02-16T05:08:06.171Z,8.77
2023-02-16T05:10:33.147Z,8.25
2023-02-16T05:13:18.647Z,8.43
2023-02-16T05:15:45.680Z,8.35
2023-02-16T05:18:12.817Z,8.38
2023-02-16T05:20:58.790Z,8.32
2023-02-16T05:23:25.891Z,9.02
2023-02-16T05:25:53.123Z,8.50
2023-02-16T05:28:20.242Z,7.50
2023-02-16T05:30:47.262Z,8.48
2023-02-16T05:33:14.259Z,8.93
2023-02-16T05:35:41.292Z,8.55
2023-02-16T05:38:08.286Z,8.95
2023-02-16T05:40:35.601Z,9.15
2023-02-16T05:43:02.582Z,9.25
2023-02-16T05:45:29.953Z,9.45
2023-02-16T05:47:56.903Z,8.10
2023-02-16T05:50:23.990Z,9.30
2023-02-16T05:52:51.247Z,9.45
2023-02-16T05:55:18.524Z,8.90
2023-02-16T05:57:46.112Z,9.25
2023-02-16T06:00:17.108Z,8.77
2023-02-16T06:02:44.241Z,9.85
2023-02-16T06:05:11.230Z,8.77
2023-02-16T06:07:38.334Z,9.05
2023-02-16T06:10:05.793Z,9.00
2023-02-16T06:12:34.637Z,8.93
2023-02-16T06:15:02.204Z,9.57
2023-02-16T06:17:29.352Z,8.70
2023-02-16T06:19:56.521Z,9.35
2023-02-16T06:22:23.451Z,9.35
2023-02-16T06:24:50.401Z,9.55
2023-02-16T06:27:17.370Z,8.80
2023-02-16T06:29:44.426Z,9.82
2023-02-16T06:32:11.568Z,10.43
2023-02-16T06:34:38.716Z,9.98
2023-02-16T06:37:05.728Z,10.07
2023-02-16T06:39:32.705Z,9.68
2023-02-16T06:41:59.971Z,9.82
2023-02-16T06:44:26.969Z,9.13
2023-02-16T06:46:54.174Z,8.90
2023-02-16T06:49:22.084Z,9.38
2023-02-16T06:51:50.306Z,9.38
2023-02-16T06:54:17.885Z,10.10
2023-02-16T06:56:45.151Z,9.98
2023-02-16T06:59:13.354Z,11.20
2023-02-16T07:01:40.521Z,10.02
2023-02-16T07:04:07.811Z,10.60
2023-02-16T07:06:35.162Z,10.32
2023-02-16T07:09:02.800Z,9.07
2023-02-16T07:11:30.028Z,9.65
2023-02-16T07:13:57.123Z,9.43
2023-02-16T07:16:24.323Z,9.55
2023-02-16T07:18:51.671Z,10.93
2023-02-16T07:21:18.720Z,9.98
2023-02-16T07:23:45.938Z,11.00
2023-02-16T07:26:13.054Z,10.18
2023-02-16T07:28:40.172Z,9.77
2023-02-16T07:31:12.274Z,9.85
2023-02-16T07:33:40.366Z,11.70
2023-02-16T07:36:08.645Z,10.40
2023-02-16T07:38:35.690Z,10.07
2023-02-16T07:41:03.125Z,10.55
2023-02-16T07:43:30.351Z,10.00
2023-02-16T07:45:57.433Z,10.10
2023-02-16T07:48:24.597Z,11.05
2023-02-16T07:50:51.831Z,9.65
2023-02-16T07:53:18.886Z,10.02
2023-02-16T07:55:46.626Z,10.07
2023-02-16T07:58:33.688Z,10.05
2023-02-16T08:01:09.902Z,10.27
2023-02-16T08:03:37.180Z,9.90
2023-02-16T08:06:05.112Z,10.80
2023-02-16T08:08:32.487Z,10.52
2023-02-16T08:10:59.695Z,9.55
2023-02-16T08:13:26.680Z,10.75
2023-02-16T08:15:53.761Z,9.52
2023-02-16T08:18:24.022Z,10.07
2023-02-16T08:21:03.720Z,10.40
2023-02-16T08:23:32.103Z,9.90
2023-02-16T08:25:59.373Z,10.98
2023-02-16T08:28:29.055Z,11.45
2023-02-16T08:30:56.331Z,10.95
2023-02-16T08:33:23.496Z,11.85
2023-02-16T08:35:50.411Z,10.52
2023-02-16T08:38:17.521Z,11.38
2023-02-16T08:40:49.018Z,11.40
2023-02-16T08:43:16.026Z,11.35
2023-02-16T08:45:49.473Z,11.13
2023-02-16T08:48:17.944Z,10.85
2023-02-16T08:50:55.702Z,11.07
2023-02-16T08:53:23.433Z,14.00
2023-02-16T08:55:57.791Z,11.63
2023-02-16T08:58:24.859Z,11.13
2023-02-16T09:00:51.995Z,12.13
2023-02-16T09:03:19.763Z,12.00
2023-02-16T09:05:48.669Z,10.80
2023-02-16T09:08:16.104Z,11.77
2023-02-16T09:10:43.503Z,12.57
2023-02-16T09:13:15.174Z,12.50
2023-02-16T09:15:45.993Z,12.50
2023-02-16T09:18:14.292Z,12.32
2023-02-16T09:20:45.629Z,11.88
2023-02-16T09:23:14.001Z,13.23
2023-02-16T09:25:42.066Z,12.40
2023-02-16T09:28:10.888Z,11.57
2023-02-16T09:30:38.994Z,12.70
2023-02-16T09:33:06.654Z,11.82
2023-02-16T09:35:33.564Z,13.60
2023-02-16T09:38:00.820Z,11.65
2023-02-16T09:40:27.816Z,13.05
2023-02-16T09:43:13.417Z,13.27
2023-02-16T09:45:45.230Z,12.93
2023-02-16T09:48:33.025Z,12.63
2023-02-16T09:51:01.332Z,12.05
2023-02-16T09:53:39.676Z,13.75
2023-02-16T09:56:40.452Z,13.02
2023-02-16T09:59:24.824Z,12.63
2023-02-16T10:02:15.524Z,13.25
2023-02-16T10:05:04.696Z,13.95
2023-02-16T10:07:58.576Z,13.48
2023-02-16T10:10:40.879Z,14.23
2023-02-16T10:13:26.161Z,13.98
2023-02-16T10:15:56.809Z,14.20
2023-02-16T10:18:52.059Z,14.63
2023-02-16T10:21:26.221Z,16.13
2023-02-16T10:24:00.202Z,14.63
2023-02-16T10:26:46.450Z,15.27
2023-02-16T10:32:06.403Z,15.10
2023-02-16T10:34:49.225Z,16.08
2023-02-16T10:38:01.180Z,14.05
2023-02-16T10:40:51.311Z,15.32
2023-02-16T10:43:39.148Z,15.25
2023-02-16T10:46:07.237Z,15.30
2023-02-16T10:48:34.687Z,15.57
2023-02-16T10:51:06.368Z,14.75
2023-02-16T10:53:33.534Z,14.90
2023-02-16T10:56:00.873Z,16.17
2023-02-16T10:58:40.584Z,16.25
2023-02-16T11:01:20.533Z,15.80
2023-02-16T11:03:53.472Z,15.43
2023-02-16T11:06:26.937Z,15.40
2023-02-16T11:08:58.012Z,16.67
2023-02-16T11:11:30.693Z,16.63
2023-02-16T11:14:03.223Z,17.48
2023-02-16T11:16:31.109Z,17.00
2023-02-16T11:19:18.664Z,16.45
2023-02-16T11:22:03.744Z,15.45
2023-02-16T11:24:34.053Z,15.70
2023-02-16T11:27:05.426Z,15.75
2023-02-16T11:29:33.268Z,16.20
2023-02-16T11:32:07.570Z,18.38
2023-02-16T11:34:37.408Z,16.38
2023-02-16T11:37:16.521Z,16.70
2023-02-16T11:40:09.276Z,15.40
2023-02-16T11:42:40.870Z,16.10
2023-02-16T11:45:21.056Z,16.13
2023-02-16T11:47:54.784Z,14.95
2023-02-16T11:50:33.661Z,16.20
2023-02-16T11:53:12.554Z,16.30
2023-02-16T11:55:45.198Z,18.58
2023-02-16T11:58:27.598Z,17.25
2023-02-16T12:01:34.870Z,15.57
2023-02-16T12:04:29.476Z,16.48
2023-02-16T12:07:15.685Z,16.25
2023-02-16T12:12:12.357Z,16.52
2023-02-16T12:14:51.052Z,15.93
2023-02-16T12:17:56.325Z,17.05
2023-02-16T12:20:45.864Z,16.55
2023-02-16T12:23:30.929Z,15.05
2023-02-16T12:26:19.857Z,16.00
2023-02-16T12:29:08.531Z,15.82
2023-02-16T12:32:01.623Z,14.82
2023-02-16T12:34:46.049Z,16.05
2023-02-16T12:37:27.795Z,17.40
2023-02-16T12:40:04.022Z,16.20
2023-02-16T12:42:39.715Z,15.43
2023-02-16T12:45:21.602Z,16.27
2023-02-16T12:47:54.515Z,15.20
2023-02-16T12:50:33.496Z,17.67
2023-02-16T12:53:22.503Z,16.90
2023-02-16T12:55:59.050Z,16.25
2023-02-16T12:58:37.768Z,17.25
2023-02-16T13:01:12.270Z,15.82
2023-02-16T13:04:09.048Z,16.00
2023-02-16T13:09:40.746Z,16.40
2023-02-16T13:12:29.265Z,16.27
2023-02-16T13:15:25.345Z,15.82
2023-02-16T13:18:06.906Z,17.60
2023-02-16T13:20:34.031Z,16.90
2023-02-16T13:23:38.522Z,16.73
2023-02-16T13:26:23.761Z,16.73
2023-02-16T13:29:16.238Z,15.90
2023-02-16T13:32:04.649Z,16.65
2023-02-16T13:34:52.834Z,17.33
2023-02-16T13:37:31.942Z,17.58
2023-02-16T13:40:12.223Z,16.83
2023-02-16T13:43:23.846Z,17.20
2023-02-16T13:45:54.682Z,17.95
2023-02-16T13:48:28.741Z,17.35
2023-02-16T13:51:05.280Z,17.60
2023-02-16T13:53:40.515Z,16.98
2023-02-16T13:56:22.182Z,17.02
2023-02-16T13:58:51.723Z,17.15
2023-02-16T14:01:39.114Z,16.73
2023-02-16T14:04:31.395Z,18.88
2023-02-16T14:07:05.221Z,16.80
2023-02-16T14:09:37.909Z,16.08
2023-02-16T14:12:16.531Z,18.83
2023-02-16T14:14:43.370Z,18.15
2023-02-16T14:17:22.624Z,17.00
2023-02-16T14:20:15.061Z,17.50
2023-02-16T14:22:53.436Z,18.98
2023-02-16T14:25:20.747Z,16.92
2023-02-16T14:27:49.040Z,16.70
2023-02-16T14:30:39.337Z,17.42
2023-02-16T14:33:18.947Z,17.35
2023-02-16T14:36:36.033Z,17.65
2023-02-16T14:39:03.142Z,18.33
2023-02-16T14:41:35.696Z,18.23
2023-02-16T14:44:06.078Z,17.77
2023-02-16T14:46:51.107Z,17.40
2023-02-16T14:49:34.144Z,17.67
2023-02-16T14:52:10.349Z,18.08
2023-02-16T14:55:27.273Z,17.98
2023-02-16T14:58:22.251Z,17.42
2023-02-16T15:01:14.456Z,15.57
2023-02-16T15:03:46.437Z,18.05
2023-02-16T15:06:39.604Z,16.13
2023-02-16T15:09:17.600Z,16.98
2023-02-16T15:12:24.125Z,15.80
2023-02-16T15:14:52.902Z,17.58
2023-02-16T15:17:41.398Z,16.40
2023-02-16T15:20:11.415Z,17.45
2023-02-16T15:22:43.902Z,16.60
2023-02-16T15:25:32.683Z,16.48
2023-02-16T15:28:15.722Z,15.65
2023-02-16T15:30:55.554Z,16.35
2023-02-16T15:33:23.095Z,16.25
2023-02-16T15:36:01.825Z,16.00
2023-02-16T15:38:35.463Z,15.45
2023-02-16T15:41:13.730Z,15.82
2023-02-16T15:43:43.602Z,15.30
2023-02-16T15:46:42.099Z,14.80
2023-02-16T15:49:34.979Z,15.32
2023-02-16T15:52:02.376Z,14.43
2023-02-16T15:54:32.320Z,16.00
2023-02-16T15:57:01.667Z,16.30
2023-02-16T15:59:35.536Z,14.23
2023-02-16T16:02:11.824Z,16.85
2023-02-16T16:04:56.986Z,15.38
2023-02-16T16:07:35.766Z,15.57
2023-02-16T16:10:09.590Z,14.75
2023-02-16T16:12:36.748Z,14.10
2023-02-16T16:15:05.036Z,14.18
2023-02-16T16:17:34.734Z,15.93
2023-02-16T16:20:31.628Z,16.80
2023-02-16T16:23:01.968Z,16.27
2023-02-16T16:25:34.866Z,15.10
2023-02-16T16:28:07.266Z,15.35
2023-02-16T16:30:36.681Z,15.82
2023-02-16T16:33:11.973Z,16.02
2023-02-16T16:35:44.795Z,17.13
2023-02-16T16:38:27.008Z,17.20
2023-02-16T16:40:57.320Z,16.88
2023-02-16T16:43:29.525Z,17.85
2023-02-16T16:46:12.703Z,18.00
2023-02-16T16:48:47.972Z,17.48
2023-02-16T16:51:31.316Z,16.65
2023-02-16T16:54:07.014Z,18.00
2023-02-16T16:56:39.624Z,16.83
2023-02-16T16:59:07.324Z,17.38
2023-02-16T17:01:34.789Z,18.85
2023-02-16T17:04:01.724Z,20.08
2023-02-16T17:06:29.427Z,18.80
2023-02-16T17:08:56.533Z,19.67
2023-02-16T17:11:30.780Z,18.77
2023-02-16T17:14:15.609Z,19.88
2023-02-16T17:16:45.314Z,20.10
2023-02-16T17:19:17.230Z,19.08
2023-02-16T17:21:44.956Z,19.23
2023-02-16T17:24:12.751Z,17.83
2023-02-16T17:26:40.458Z,19.10
2023-02-16T17:29:07.578Z,17.92
2023-02-16T17:31:35.035Z,18.73
2023-02-16T17:34:02.001Z,18.80
2023-02-16T17:36:29.029Z,18.50
2023-02-16T17:38:56.116Z,19.70
2023-02-16T17:41:28.568Z,19.67
2023-02-16T17:43:55.536Z,20.25
2023-02-16T17:46:23.723Z,20.42
2023-02-16T17:48:54.025Z,18.77
2023-02-16T17:51:23.551Z,18.77
2023-02-16T17:53:50.883Z,18.45
2023-02-16T17:56:21.139Z,20.17
2023-02-16T17:58:48.111Z,18.25
2023-02-16T18:01:16.593Z,18.55
2023-02-16T18:03:43.601Z,18.10
2023-02-16T18:06:18.180Z,19.45
2023-02-16T18:08:45.385Z,18.15
2023-02-16T18:11:12.807Z,17.95
2023-02-16T18:13:40.019Z,18.35
2023-02-16T18:16:08.468Z,17.63
2023-02-16T18:18:36.913Z,17.55
2023-02-16T18:21:04.150Z,17.58
2023-02-16T18:23:31.336Z,16.98
2023-02-16T18:25:58.381Z,16.55
2023-02-16T18:28:27.921Z,17.17
2023-02-16T18:30:55.111Z,16.52
2023-02-16T18:33:22.218Z,17.08
2023-02-16T18:35:51.888Z,16.65
2023-02-16T18:38:21.842Z,16.17
2023-02-16T18:40:49.444Z,15.75
2023-02-16T18:43:16.701Z,15.32
2023-02-16T18:45:44.111Z,15.23
2023-02-16T18:48:12.017Z,14.93
2023-02-16T18:50:39.131Z,16.95
2023-02-16T18:53:07.517Z,16.52
2023-02-16T18:55:35.230Z,15.73
2023-02-16T18:58:07.414Z,15.13
2023-02-16T19:00:35.486Z,16.02
2023-02-16T19:03:03.159Z,16.00
2023-02-16T19:05:30.590Z,12.95
2023-02-16T19:07:57.616Z,14.38
2023-02-16T19:10:25.238Z,14.40
2023-02-16T19:12:52.455Z,13.23
2023-02-16T19:15:19.802Z,13.20
2023-02-16T19:17:46.868Z,15.20
2023-02-16T19:20:18.076Z,15.43
2023-02-16T19:22:46.646Z,13.35
2023-02-16T19:25:15.163Z,14.35
2023-02-16T19:27:42.426Z,14.80
2023-02-16T19:30:10.056Z,14.90
2023-02-16T19:32:38.706Z,13.70
2023-02-16T19:35:05.875Z,13.82
2023-02-16T19:37:32.895Z,14.07
2023-02-16T19:39:59.943Z,12.30
2023-02-16T19:42:27.077Z,11.80
2023-02-16T19:44:54.117Z,13.32
2023-02-16T19:47:21.400Z,13.50
2023-02-16T19:49:48.296Z,12.02
2023-02-16T19:52:15.553Z,11.13
2023-02-16T19:54:42.465Z,10.60
2023-02-16T19:57:09.472Z,11.70
2023-02-16T19:59:36.493Z,12.52
2023-02-16T20:02:03.894Z,10.85
2023-02-16T20:04:30.869Z,11.10
2023-02-16T20:06:58.056Z,10.27
2023-02-16T20:09:25.306Z,9.43
2023-02-16T20:11:52.571Z,10.45
2023-02-16T20:14:19.569Z,10.73
2023-02-16T20:16:46.717Z,9.35
2023-02-16T20:19:14.162Z,10.45
2023-02-16T20:21:44.162Z,9.52
2023-02-16T20:24:12.061Z,10.73
2023-02-16T20:26:44.227Z,9.90
2023-02-16T20:29:13.156Z,10.40
2023-02-16T20:31:59.305Z,9.45
2023-02-16T20:34:27.431Z,11.40
2023-02-16T20:36:54.814Z,10.13
2023-02-16T20:39:22.867Z,9.88
2023-02-16T20:41:50.157Z,10.52
2023-02-16T20:44:17.115Z,10.95
2023-02-16T20:46:44.201Z,11.35
2023-02-16T20:49:11.194Z,10.85
2023-02-16T20:51:38.392Z,11.13
2023-02-16T20:54:05.984Z,9.93
2023-02-16T20:56:33.220Z,10.45
2023-02-16T20:59:01.555Z,13.02
2023-02-16T21:01:33.964Z,10.75
2023-02-16T21:04:00.987Z,12.00
2023-02-16T21:06:28.540Z,12.50
2023-02-16T21:08:55.884Z,11.73
2023-02-16T21:11:23.426Z,11.25
2023-02-16T21:13:50.402Z,11.25
2023-02-16T21:16:17.875Z,10.40
2023-02-16T21:18:45.120Z,10.80
2023-02-16T21:21:15.806Z,11.05
2023-02-16T21:23:51.493Z,10.68
2023-02-16T21:26:20.341Z,10.50
2023-02-16T21:28:47.569Z,12.00
2023-02-16T21:31:17.910Z,11.75
2023-02-16T21:33:45.618Z,11.02
2023-02-16T21:36:17.454Z,11.60
2023-02-16T21:38:44.591Z,11.65
2023-02-16T21:41:27.557Z,10.48
2023-02-16T21:44:01.710Z,10.70
2023-02-16T21:46:33.918Z,11.15
2023-02-16T21:49:01.215Z,11.30
2023-02-16T21:51:31.429Z,11.32
2023-02-16T21:53:59.564Z,10.35
2023-02-16T21:56:49.209Z,10.77
2023-02-16T21:59:18.273Z,11.15
2023-02-16T22:01:50.999Z,10.75
2023-02-16T22:04:21.821Z,10.35
2023-02-16T22:06:50.349Z,10.95
2023-02-16T22:09:23.342Z,10.07
2023-02-16T22:11:51.385Z,9.82
2023-02-16T22:14:19.174Z,10.10
2023-02-16T22:16:47.899Z,11.82
2023-02-16T22:19:18.042Z,11.15
2023-02-16T22:21:46.353Z,11.20
2023-02-16T22:24:15.136Z,11.32
2023-02-16T22:26:42.266Z,11.25
2023-02-16T22:29:09.936Z,11.60
2023-02-16T22:31:37.385Z,10.98
2023-02-16T22:34:07.213Z,11.75
2023-02-16T22:36:35.889Z,12.40
2023-02-16T22:39:02.946Z,12.10
2023-02-16T22:41:29.899Z,11.85
2023-02-16T22:43:57.426Z,12.07
2023-02-16T22:46:24.866Z,11.60
2023-02-16T22:48:52.585Z,11.98
2023-02-16T22:51:21.605Z,12.77
2023-02-16T22:53:48.706Z,11.30
2023-02-16T22:56:18.361Z,12.50
2023-02-16T22:58:46.330Z,11.90
2023-02-16T23:01:19.030Z,11.45
2023-02-16T23:03:47.781Z,12.13
2023-02-16T23:06:20.736Z,10.50
2023-02-16T23:08:52.678Z,11.82
2023-02-16T23:11:19.786Z,11.32
2023-02-16T23:13:46.844Z,11.20
2023-02-16T23:16:16.660Z,10.73
2023-02-16T23:18:44.843Z,11.10
2023-02-16T23:21:16.497Z,10.35
2023-02-16T23:23:43.942Z,11.02
2023-02-16T23:26:11.217Z,11.23
2023-02-16T23:28:40.826Z,10.57
2023-02-16T23:31:08.614Z,10.32
2023-02-16T23:33:35.710Z,11.20
2023-02-16T23:36:03.050Z,11.02
2023-02-16T23:38:30.106Z,10.82
2023-02-16T23:41:03.639Z,11.05
2023-02-16T23:43:31.237Z,10.23
2023-02-16T23:45:58.442Z,10.93
2023-02-16T23:48:25.633Z,10.73
2023-02-16T23:50:53.688Z,10.25
2023-02-16T23:53:22.007Z,10.60
2023-02-16T23:56:07.965Z,10.88
2023-02-16T23:58:37.498Z,10.82
